Time;durP1;ratioP1;P1;durP2;ratioP2;P2;SDS_P1;SDS_P2;PMS_P1;PMS_P2;Temp;Humidity;BMP_temperature;BMP_pressure;BME280_temperature;BME280_humidity;BME280_pressure;Samples;Min_cycle;Max_cycle;Signal;HPM_P1;HPM_P2
2023/09/23 00:02:46;;;;;;;3.55;2.25;;;;;;;13.71;100.00;100600.97;5072120;28;20045;-66
2023/09/23 00:05:36;;;;;;;2.95;2.35;;;;;;;13.67;100.00;100598.03;5071024;28;20084;-64
2023/09/23 00:08:24;;;;;;;2.60;2.40;;;;;;;13.63;100.00;100614.22;5059657;28;20597;-65
2023/09/23 00:11:12;;;;;;;2.95;2.63;;;;;;;13.59;100.00;100610.47;5059993;28;20037;-64
2023/09/23 00:14:01;;;;;;;3.40;2.70;;;;;;;13.59;100.00;100617.88;5091109;28;20048;-65
2023/09/23 00:16:49;;;;;;;4.25;2.95;;;;;;;13.60;100.00;100619.47;5085135;28;20049;-65
2023/09/23 00:19:40;;;;;;;4.13;2.60;;;;;;;13.60;100.00;100614.00;5072826;28;20420;-65
2023/09/23 00:22:28;;;;;;;6.07;3.10;;;;;;;13.60;100.00;100617.53;5060627;28;20044;-64
2023/09/23 00:25:18;;;;;;;5.78;3.38;;;;;;;13.53;100.00;100613.53;5073778;28;20063;-65
2023/09/23 00:28:12;;;;;;;3.78;3.00;;;;;;;13.47;100.00;100615.53;5062168;28;20047;-64
2023/09/23 00:31:05;;;;;;;5.18;3.40;;;;;;;13.47;100.00;100621.00;5063095;28;20086;-64
2023/09/23 00:33:53;;;;;;;5.72;3.45;;;;;;;13.50;100.00;100617.69;5057970;28;20041;-66
2023/09/23 00:36:41;;;;;;;6.95;3.38;;;;;;;13.50;100.00;100620.41;5061223;28;20040;-65
2023/09/23 00:39:29;;;;;;;5.38;3.63;;;;;;;13.52;100.00;100618.22;5046513;28;20045;-64
2023/09/23 00:42:19;;;;;;;4.97;3.60;;;;;;;13.54;100.00;100623.38;5037390;28;20055;-65
2023/09/23 00:45:07;;;;;;;8.93;4.00;;;;;;;13.54;100.00;100632.41;5064422;28;20542;-65
2023/09/23 00:47:56;;;;;;;6.38;3.83;;;;;;;13.52;100.00;100645.59;5073689;28;20555;-64
2023/09/23 00:50:46;;;;;;;6.18;4.20;;;;;;;13.50;100.00;100631.38;5057467;28;20478;-65
2023/09/23 00:53:39;;;;;;;8.18;4.47;;;;;;;13.48;100.00;100632.78;5026438;28;20091;-66
2023/09/23 00:56:30;;;;;;;7.75;4.25;;;;;;;13.48;100.00;100635.50;5059862;28;20045;-65
2023/09/23 00:59:19;;;;;;;7.10;4.43;;;;;;;13.48;100.00;100636.31;5033223;28;20044;-65
2023/09/23 01:02:07;;;;;;;11.75;4.88;;;;;;;13.47;100.00;100639.34;5059782;28;20049;-65
2023/09/23 01:04:58;;;;;;;6.93;4.38;;;;;;;13.44;100.00;100635.25;5059462;28;20083;-65
2023/09/23 01:07:47;;;;;;;7.80;5.15;;;;;;;13.47;100.00;100642.06;5090341;28;20513;-64
2023/09/23 01:10:36;;;;;;;8.23;5.13;;;;;;;13.46;100.00;100635.78;5056117;28;20532;-64
2023/09/23 01:13:24;;;;;;;6.47;4.47;;;;;;;13.46;100.00;100641.25;5040113;28;20049;-64
2023/09/23 01:16:13;;;;;;;8.63;4.85;;;;;;;13.41;100.00;100639.41;5053765;28;20059;-64
2023/09/23 01:19:01;;;;;;;7.60;5.28;;;;;;;13.41;100.00;100644.06;5052874;28;20051;-65
2023/09/23 01:21:49;;;;;;;9.23;5.20;;;;;;;13.40;100.00;100646.00;5070718;28;20127;-65
2023/09/23 01:24:37;;;;;;;8.95;5.30;;;;;;;13.37;100.00;100648.47;5074597;28;20040;-65
2023/09/23 01:27:25;;;;;;;11.52;5.25;;;;;;;13.37;100.00;100654.78;5069663;28;20127;-65
2023/09/23 01:30:13;;;;;;;9.50;5.60;;;;;;;13.38;100.00;100655.59;5068662;28;20604;-64
2023/09/23 01:33:05;;;;;;;10.23;5.35;;;;;;;13.39;100.00;100655.28;5038976;28;20049;-64
2023/09/23 01:35:56;;;;;;;10.65;5.68;;;;;;;13.40;100.00;100665.16;5047622;28;20488;-64
2023/09/23 01:38:44;;;;;;;8.77;5.05;;;;;;;13.38;100.00;100661.88;5054642;28;20525;-65
2023/09/23 01:41:32;;;;;;;7.72;4.97;;;;;;;13.39;100.00;100660.75;5057441;28;20049;-64
2023/09/23 01:44:20;;;;;;;8.30;4.80;;;;;;;13.40;100.00;100667.88;5053817;28;20520;-65
2023/09/23 01:47:08;;;;;;;7.70;4.70;;;;;;;13.38;100.00;100670.09;5053405;28;20147;-64
2023/09/23 01:49:56;;;;;;;7.03;4.97;;;;;;;13.37;100.00;100671.22;5093661;28;20040;-64
2023/09/23 01:52:47;;;;;;;7.80;4.78;;;;;;;13.39;100.00;100676.38;5043552;28;20044;-65
2023/09/23 01:55:37;;;;;;;9.50;4.80;;;;;;;13.40;100.00;100675.28;5064385;28;20144;-63
2023/09/23 01:58:25;;;;;;;7.93;4.45;;;;;;;13.39;100.00;100673.63;5093130;28;20051;-64
2023/09/23 02:01:13;;;;;;;9.20;5.05;;;;;;;13.38;100.00;100672.03;5072224;28;20132;-64
2023/09/23 02:04:01;;;;;;;7.47;4.53;;;;;;;13.38;100.00;100680.22;5058904;28;20048;-64
2023/09/23 02:06:51;;;;;;;6.85;4.45;;;;;;;13.36;100.00;100679.69;5059991;28;20060;-65
2023/09/23 02:09:39;;;;;;;7.57;4.32;;;;;;;13.36;100.00;100691.44;5058618;28;20071;-64
2023/09/23 02:12:27;;;;;;;11.25;4.45;;;;;;;13.37;100.00;100695.84;5058266;28;20049;-64
2023/09/23 02:15:15;;;;;;;6.80;4.40;;;;;;;13.36;100.00;100691.44;5059413;28;20420;-64
2023/09/23 02:18:04;;;;;;;6.93;4.05;;;;;;;13.38;100.00;100699.38;5074191;28;20047;-65
2023/09/23 02:20:52;;;;;;;7.20;4.38;;;;;;;13.37;100.00;100698.56;5072079;28;20040;-65
2023/09/23 02:23:41;;;;;;;8.35;4.40;;;;;;;13.34;100.00;100698.31;5045576;28;20524;-63
2023/09/23 02:26:30;;;;;;;9.52;4.38;;;;;;;13.32;100.00;100695.06;5079127;28;20044;-64
2023/09/23 02:29:35;;;;;;;13.43;3.95;;;;;;;13.33;100.00;100704.91;4978930;28;10001382;-65
2023/09/23 02:32:23;;;;;;;6.43;3.80;;;;;;;13.33;100.00;100699.44;5049663;28;20242;-65
2023/09/23 02:35:13;;;;;;;6.65;3.92;;;;;;;13.31;100.00;100704.38;5047379;28;20060;-66
2023/09/23 02:38:03;;;;;;;6.47;3.80;;;;;;;13.30;100.00;100709.03;5051405;28;20048;-65
2023/09/23 02:40:53;;;;;;;7.60;3.83;;;;;;;13.30;100.00;100709.03;5030689;28;20049;-66
2023/09/23 02:43:41;;;;;;;8.48;4.03;;;;;;;13.29;100.00;100720.28;5040994;28;20059;-65
2023/09/23 02:46:29;;;;;;;7.90;3.75;;;;;;;13.26;100.00;100718.09;5038466;28;20501;-65
2023/09/23 02:49:19;;;;;;;8.05;3.92;;;;;;;13.27;100.00;100719.72;5048548;28;20519;-65
2023/09/23 02:52:07;;;;;;;7.47;3.63;;;;;;;13.25;100.00;100728.19;5052191;28;20057;-65
2023/09/23 02:54:56;;;;;;;8.25;4.07;;;;;;;13.21;100.00;100738.91;5067645;28;20064;-65
2023/09/23 02:57:49;;;;;;;6.47;3.63;;;;;;;13.23;100.00;100735.91;5022123;28;20064;-66
2023/09/23 03:00:37;;;;;;;6.53;3.50;;;;;;;13.22;100.00;100740.53;5054595;28;20048;-65
2023/09/23 03:03:27;;;;;;;11.05;3.83;;;;;;;13.24;100.00;100739.44;5071342;28;20076;-65
2023/09/23 03:06:18;;;;;;;7.32;3.53;;;;;;;13.24;100.00;100744.91;5084414;28;20138;-65
2023/09/23 03:09:08;;;;;;;6.43;3.35;;;;;;;13.22;100.00;100743.25;5035474;28;20044;-65
2023/09/23 03:11:56;;;;;;;5.55;3.30;;;;;;;13.21;100.00;100741.66;5049181;28;20060;-65
2023/09/23 03:14:51;;;;;;;10.57;3.92;;;;;;;13.21;100.00;100738.91;5035379;28;20128;-64
2023/09/23 03:17:42;;;;;;;6.05;3.10;;;;;;;13.20;100.00;100737.28;5050659;28;20471;-65
2023/09/23 03:20:31;;;;;;;6.43;2.95;;;;;;;13.20;100.00;100741.94;5054016;28;20048;-63
2023/09/23 03:23:20;;;;;;;7.95;3.65;;;;;;;13.18;100.00;100744.13;5054677;28;20059;-64
2023/09/23 03:26:09;;;;;;;7.97;3.60;;;;;;;13.16;100.00;100751.84;5055387;28;20044;-64
2023/09/23 03:28:58;;;;;;;6.43;3.30;;;;;;;13.15;100.00;100739.25;5008478;28;20049;-65
2023/09/23 03:31:46;;;;;;;7.65;3.28;;;;;;;13.13;100.00;100755.97;5033661;28;20067;-64
2023/09/23 03:34:37;;;;;;;8.75;3.58;;;;;;;13.10;100.00;100748.31;5047852;28;20146;-65
2023/09/23 03:37:26;;;;;;;8.40;3.50;;;;;;;13.12;100.00;100761.72;5041203;28;20044;-64
2023/09/23 03:40:15;;;;;;;9.02;3.72;;;;;;;13.11;100.00;100766.38;5055403;28;20047;-64
2023/09/23 03:43:04;;;;;;;7.95;3.35;;;;;;;13.08;100.00;100774.31;5057896;28;20142;-64
2023/09/23 03:45:52;;;;;;;9.70;3.65;;;;;;;13.08;100.00;100766.91;5037738;28;20049;-64
2023/09/23 03:48:41;;;;;;;9.15;3.45;;;;;;;13.05;100.00;100772.97;5037475;28;20083;-64
2023/09/23 03:51:31;;;;;;;7.78;3.63;;;;;;;13.05;100.00;100767.50;5025148;28;20088;-65
2023/09/23 03:54:19;;;;;;;8.13;3.17;;;;;;;13.06;100.00;100774.63;5057921;28;20048;-65
2023/09/23 03:57:07;;;;;;;8.40;3.58;;;;;;;13.07;100.00;100772.69;5071872;28;20459;-66
2023/09/23 03:59:57;;;;;;;7.57;3.33;;;;;;;13.06;100.00;100780.09;5055854;28;20043;-65
2023/09/23 04:02:48;;;;;;;6.15;3.03;;;;;;;13.05;100.00;100785.84;5033482;28;20048;-64
2023/09/23 04:05:36;;;;;;;6.05;2.95;;;;;;;13.06;100.00;100784.72;5047826;28;20054;-66
2023/09/23 04:08:25;;;;;;;7.25;3.00;;;;;;;13.05;100.00;100783.91;5076538;28;20221;-65
2023/09/23 04:11:15;;;;;;;7.57;2.60;;;;;;;13.04;100.00;100786.94;5062024;28;20442;-65
2023/09/23 04:14:04;;;;;;;8.57;3.30;;;;;;;13.02;100.00;100789.97;5056265;28;20049;-66
2023/09/23 04:16:52;;;;;;;6.32;2.83;;;;;;;13.04;100.00;100787.75;5055039;28;20083;-64
2023/09/23 04:19:40;;;;;;;7.18;3.10;;;;;;;13.00;100.00;100784.75;5036758;28;20051;-64
2023/09/23 04:22:29;;;;;;;7.03;2.90;;;;;;;13.01;100.00;100793.78;5067279;28;20416;-64
2023/09/23 04:25:20;;;;;;;9.10;3.28;;;;;;;13.00;100.00;100792.97;5077339;28;20040;-64
2023/09/23 04:28:08;;;;;;;8.40;2.75;;;;;;;12.98;100.00;100805.28;5060919;28;20048;-65
2023/09/23 04:30:59;;;;;;;6.20;3.08;;;;;;;12.95;100.00;100812.16;5073726;28;20454;-64
2023/09/23 04:33:47;;;;;;;8.70;3.40;;;;;;;12.97;100.00;100803.69;5063437;28;20191;-65
2023/09/23 04:36:36;;;;;;;6.72;3.10;;;;;;;12.97;100.00;100806.41;5036216;28;20048;-65
2023/09/23 04:39:24;;;;;;;6.68;3.20;;;;;;;12.96;100.00;100813.81;5036613;28;20045;-66
2023/09/23 04:42:14;;;;;;;9.48;3.47;;;;;;;12.96;100.00;100821.16;5053526;28;20122;-66
2023/09/23 04:45:03;;;;;;;4.60;2.67;;;;;;;12.96;100.00;100819.28;5074391;28;20055;-65
2023/09/23 04:47:51;;;;;;;6.38;3.03;;;;;;;12.97;100.00;100825.56;5062661;28;20060;-64
2023/09/23 04:50:41;;;;;;;4.78;2.55;;;;;;;12.96;100.00;100832.09;5089397;28;20055;-65
2023/09/23 04:53:29;;;;;;;6.55;3.10;;;;;;;12.93;100.00;100830.75;5075061;28;20044;-65
2023/09/23 04:56:18;;;;;;;6.00;2.65;;;;;;;12.93;100.00;100840.88;5060897;28;20036;-66
2023/09/23 04:59:06;;;;;;;7.32;3.03;;;;;;;12.92;100.00;100836.53;5080486;28;20063;-65
2023/09/23 05:01:54;;;;;;;7.05;2.92;;;;;;;12.91;100.00;100843.91;5052073;28;20425;-65
2023/09/23 05:04:45;;;;;;;7.63;2.97;;;;;;;12.94;100.00;100839.78;5057021;28;20052;-65
2023/09/23 05:07:33;;;;;;;6.63;3.10;;;;;;;12.92;100.00;100839.28;5068195;28;20048;-65
2023/09/23 05:10:21;;;;;;;6.50;2.65;;;;;;;12.90;100.00;100846.94;5072334;28;20048;-64
2023/09/23 05:13:10;;;;;;;7.07;3.20;;;;;;;12.89;100.00;100850.75;5058581;28;20120;-65
2023/09/23 05:15:58;;;;;;;7.95;3.00;;;;;;;12.91;100.00;100859.50;5051256;28;20044;-65
2023/09/23 05:18:46;;;;;;;7.47;2.95;;;;;;;12.90;100.00;100861.41;5070935;28;20071;-64
2023/09/23 05:21:35;;;;;;;7.32;3.05;;;;;;;12.79;100.00;100866.13;5094522;28;20361;-65
2023/09/23 05:24:26;;;;;;;9.27;3.97;;;;;;;12.74;100.00;100876.25;5081610;28;20050;-66
2023/09/23 05:27:15;;;;;;;6.70;3.60;;;;;;;12.68;100.00;100883.69;5073908;28;20123;-64
2023/09/23 05:30:05;;;;;;;13.40;3.70;;;;;;;12.65;100.00;100895.19;5093465;28;20101;-66
2023/09/23 05:32:53;;;;;;;12.52;3.90;;;;;;;12.62;100.00;100892.19;5094557;28;20081;-65
2023/09/23 05:35:41;;;;;;;6.72;2.72;;;;;;;12.67;100.00;100897.63;5087641;28;20052;-65
2023/09/23 05:38:29;;;;;;;7.53;2.95;;;;;;;12.71;100.00;100894.06;5054461;28;20095;-65
2023/09/23 05:41:17;;;;;;;7.43;3.28;;;;;;;12.75;100.00;100900.59;5075148;28;20060;-66
2023/09/23 05:44:07;;;;;;;4.82;2.75;;;;;;;12.82;100.00;100904.94;5074667;28;20591;-65
2023/09/23 05:46:55;;;;;;;;;;;;;;;12.83;100.00;100910.13;4358421;28;10020718;-65
2023/09/23 05:49:43;;;;;;;4.25;2.53;;;;;;;12.79;100.00;100915.34;5070994;28;19927;-65
2023/09/23 05:52:36;;;;;;;6.68;2.80;;;;;;;12.79;100.00;100918.09;5071241;28;20063;-65
2023/09/23 05:55:24;;;;;;;7.13;3.10;;;;;;;12.78;100.00;100919.19;5069992;28;20135;-65
2023/09/23 05:58:12;;;;;;;6.72;2.95;;;;;;;12.77;100.00;100925.75;5066150;28;20044;-65
2023/09/23 06:01:00;;;;;;;8.52;3.30;;;;;;;12.75;100.00;100930.69;5045781;28;20055;-65
2023/09/23 06:03:49;;;;;;;4.90;2.63;;;;;;;12.81;100.00;100936.94;5050204;28;20508;-65
2023/09/23 06:06:41;;;;;;;6.28;2.75;;;;;;;12.84;100.00;100947.31;5052988;28;20041;-65
2023/09/23 06:09:29;;;;;;;6.85;3.03;;;;;;;12.82;100.00;100948.69;5060261;28;20408;-66
2023/09/23 06:12:17;;;;;;;8.05;3.40;;;;;;;12.81;100.00;100963.47;5068308;28;20527;-65
2023/09/23 06:15:05;;;;;;;9.00;3.35;;;;;;;12.79;100.00;100963.72;5068995;28;20125;-64
2023/09/23 06:17:53;;;;;;;7.57;2.83;;;;;;;12.82;100.00;100979.59;5046984;28;20778;-64
2023/09/23 06:20:41;;;;;;;9.15;3.25;;;;;;;12.75;100.00;100970.88;5055361;28;20525;-66
2023/09/23 06:23:29;;;;;;;6.25;2.72;;;;;;;12.79;100.00;100978.25;5068920;28;20052;-64
2023/09/23 06:26:18;;;;;;;7.45;3.08;;;;;;;12.79;100.00;100988.34;5041883;28;20162;-64
2023/09/23 06:29:06;;;;;;;7.32;2.90;;;;;;;12.81;100.00;100990.81;5057564;28;20087;-65
2023/09/23 06:31:55;;;;;;;10.00;3.42;;;;;;;12.83;100.00;100994.09;5068858;28;20059;-65
2023/09/23 06:34:43;;;;;;;6.43;3.20;;;;;;;12.85;100.00;100997.38;5068260;28;20565;-66
2023/09/23 06:37:31;;;;;;;6.10;2.60;;;;;;;12.88;100.00;101002.28;5070925;28;20049;-64
2023/09/23 06:40:19;;;;;;;7.82;3.10;;;;;;;12.85;100.00;101008.31;5053445;28;20123;-65
2023/09/23 06:43:07;;;;;;;9.20;3.40;;;;;;;12.88;100.00;101013.22;5069286;28;20131;-65
2023/09/23 06:45:56;;;;;;;6.75;2.78;;;;;;;12.88;100.00;101014.03;5069861;28;20048;-64
2023/09/23 06:48:44;;;;;;;8.27;3.28;;;;;;;12.88;100.00;101013.22;5054237;28;20044;-65
2023/09/23 06:51:33;;;;;;;6.72;3.00;;;;;;;12.88;100.00;101018.69;5054103;28;20107;-65
2023/09/23 06:54:21;;;;;;;7.18;3.22;;;;;;;12.92;100.00;101019.75;5043328;28;20053;-66
2023/09/23 06:57:09;;;;;;;4.65;2.72;;;;;;;12.92;100.00;101019.75;5070600;28;20052;-65
2023/09/23 06:59:57;;;;;;;6.65;2.85;;;;;;;12.93;100.00;101021.38;5074090;28;20049;-65
2023/09/23 07:02:45;;;;;;;6.68;2.90;;;;;;;12.98;100.00;101024.09;5054489;28;20052;-66
2023/09/23 07:05:34;;;;;;;4.82;1.98;;;;;;;13.13;100.00;101025.94;5040378;28;20122;-64
2023/09/23 07:08:22;;;;;;;6.10;2.63;;;;;;;13.04;100.00;101031.22;5068261;28;20492;-65
2023/09/23 07:11:14;;;;;;;10.95;3.78;;;;;;;13.02;100.00;101029.84;5051587;28;20052;-67
2023/09/23 07:14:05;;;;;;;8.23;3.08;;;;;;;13.04;100.00;101035.88;5069291;28;20052;-66
2023/09/23 07:16:55;;;;;;;5.03;2.90;;;;;;;13.07;100.00;101044.31;5074665;28;20413;-65
2023/09/23 07:19:47;;;;;;;7.78;3.50;;;;;;;13.10;100.00;101057.44;5052099;28;20064;-64
2023/09/23 07:22:35;;;;;;;7.93;2.90;;;;;;;13.09;100.00;101064.00;5052348;28;20087;-65
2023/09/23 07:25:23;;;;;;;7.93;3.30;;;;;;;13.09;100.00;101053.06;5055570;28;20539;-66
2023/09/23 07:28:10;;;;;;;9.18;3.33;;;;;;;13.10;100.00;101060.16;5073007;28;20404;-65
2023/09/23 07:30:58;;;;;;;9.15;2.92;;;;;;;13.26;100.00;101073.81;5092567;28;20043;-65
2023/09/23 07:33:47;;;;;;;11.48;3.85;;;;;;;13.19;100.00;101080.38;5076244;28;20385;-64
2023/09/23 07:36:35;;;;;;;12.20;3.53;;;;;;;13.12;100.00;101074.38;5077804;28;20102;-63
2023/09/23 07:39:23;;;;;;;11.52;3.47;;;;;;;13.09;100.00;101074.94;5094660;28;20090;-64
2023/09/23 07:42:12;;;;;;;9.45;3.88;;;;;;;13.11;100.00;101074.69;5086027;28;20037;-65
2023/09/23 07:45:00;;;;;;;7.72;3.22;;;;;;;13.19;100.00;101083.13;5072989;28;20052;-65
2023/09/23 07:47:48;;;;;;;9.30;3.80;;;;;;;13.21;100.00;101083.66;5023471;28;20049;-64
2023/09/23 07:50:36;;;;;;;9.57;3.88;;;;;;;13.24;100.00;101087.75;5012743;28;20113;-65
2023/09/23 07:53:24;;;;;;;10.70;3.45;;;;;;;13.26;100.00;101099.25;5070042;28;20048;-66
2023/09/23 07:56:12;;;;;;;10.48;3.90;;;;;;;13.26;100.00;101101.16;5071097;28;20055;-66
2023/09/23 07:59:00;;;;;;;7.55;3.20;;;;;;;13.25;100.00;101105.00;5069055;28;20051;-64
2023/09/23 08:01:48;;;;;;;11.82;3.72;;;;;;;13.24;100.00;101100.63;5072489;28;20049;-65
2023/09/23 08:04:37;;;;;;;12.38;3.95;;;;;;;13.24;100.00;101103.38;5059637;28;20133;-65
2023/09/23 08:07:25;;;;;;;12.45;3.47;;;;;;;13.25;100.00;101119.47;5070186;28;20129;-65
2023/09/23 08:10:13;;;;;;;9.25;3.38;;;;;;;13.29;100.00;101128.00;5073658;28;20056;-65
2023/09/23 08:13:02;;;;;;;13.38;4.00;;;;;;;13.33;100.00;101129.09;5057705;28;20037;-66
2023/09/23 08:15:50;;;;;;;8.88;3.45;;;;;;;13.38;100.00;101129.06;5057621;28;20049;-65
2023/09/23 08:18:38;;;;;;;11.88;3.97;;;;;;;13.51;100.00;101136.66;5053782;28;20404;-66
2023/09/23 08:21:26;;;;;;;10.43;3.38;;;;;;;13.59;100.00;101138.03;5062632;28;20194;-67
2023/09/23 08:24:14;;;;;;;12.00;3.90;;;;;;;13.74;100.00;101140.69;5071135;28;20048;-66
2023/09/23 08:27:04;;;;;;;10.45;3.40;;;;;;;13.77;100.00;101147.50;5057647;28;20129;-66
2023/09/23 08:29:52;;;;;;;11.60;3.30;;;;;;;13.71;100.00;101152.22;5073428;28;20051;-65
2023/09/23 08:32:40;;;;;;;8.27;3.20;;;;;;;13.70;100.00;101155.22;5036418;28;20052;-65
2023/09/23 08:35:29;;;;;;;8.57;3.30;;;;;;;13.70;100.00;101155.22;5050287;28;20037;-65
2023/09/23 08:38:21;;;;;;;7.38;2.92;;;;;;;13.70;100.00;101166.97;5024107;28;20048;-66
2023/09/23 08:41:09;;;;;;;9.73;3.20;;;;;;;13.73;100.00;101176.56;5064537;28;20044;-64
2023/09/23 08:43:58;;;;;;;8.27;3.53;;;;;;;13.74;100.00;101178.22;5076980;28;20040;-66
2023/09/23 08:46:48;;;;;;;12.15;3.47;;;;;;;13.69;100.00;101198.22;5063789;28;20059;-65
2023/09/23 08:49:38;;;;;;;10.65;3.42;;;;;;;13.66;100.00;101192.47;5066030;28;20518;-66
2023/09/23 08:52:26;;;;;;;9.48;3.10;;;;;;;13.67;100.00;101200.41;5058534;28;20056;-65
2023/09/23 08:55:17;;;;;;;10.13;4.22;;;;;;;13.66;100.00;101204.22;5078077;28;20109;-65
2023/09/23 08:58:05;;;;;;;9.70;3.20;;;;;;;13.68;100.00;101212.19;5086853;28;20076;-65
2023/09/23 09:00:54;;;;;;;10.63;3.83;;;;;;;13.70;100.00;101210.78;5080683;28;20500;-65
2023/09/23 09:03:42;;;;;;;8.15;3.20;;;;;;;13.72;100.00;101218.75;5052610;28;20063;-64
2023/09/23 09:06:30;;;;;;;13.23;3.88;;;;;;;13.76;100.00;101219.84;5050344;28;20045;-66
2023/09/23 09:09:18;;;;;;;14.90;3.50;;;;;;;13.78;100.00;101212.97;5066119;28;20509;-66
2023/09/23 09:12:07;;;;;;;10.07;3.40;;;;;;;13.82;100.00;101229.66;5076843;28;20040;-65
2023/09/23 09:14:55;;;;;;;9.02;3.20;;;;;;;13.83;100.00;101228.56;5059938;28;20052;-65
2023/09/23 09:17:45;;;;;;;8.95;3.50;;;;;;;13.88;100.00;101224.97;5065805;28;20063;-65
2023/09/23 09:20:33;;;;;;;11.80;4.00;;;;;;;13.92;100.00;101229.59;5052942;28;20128;-64
2023/09/23 09:23:29;;;;;;;13.45;4.00;;;;;;;13.96;100.00;101229.88;5074689;28;20131;-66
2023/09/23 09:26:18;;;;;;;12.02;3.65;;;;;;;14.02;100.00;101228.75;5072517;28;20045;-67
2023/09/23 09:29:07;;;;;;;8.07;3.30;;;;;;;14.04;100.00;101232.84;5058555;28;20511;-65
2023/09/23 09:32:02;;;;;;;9.40;3.15;;;;;;;14.04;100.00;101232.84;5040019;28;20045;-66
2023/09/23 09:34:51;;;;;;;9.90;3.40;;;;;;;14.02;100.00;101246.03;5039758;28;20045;-67
2023/09/23 09:37:44;;;;;;;9.25;3.25;;;;;;;14.02;100.00;101250.66;5016757;28;20044;-66
2023/09/23 09:40:32;;;;;;;13.38;4.05;;;;;;;14.05;100.00;101255.59;5077038;28;20404;-65
2023/09/23 09:43:21;;;;;;;9.57;3.40;;;;;;;14.05;100.00;101256.41;5060372;28;20090;-65
2023/09/23 09:46:12;;;;;;;11.10;3.40;;;;;;;14.05;100.00;101259.16;5059816;28;20158;-65
2023/09/23 09:49:01;;;;;;;12.70;4.18;;;;;;;14.06;100.00;101255.28;5061454;28;20135;-64
2023/09/23 09:51:49;;;;;;;11.43;3.13;;;;;;;14.09;100.00;101264.88;5064938;28;20138;-65
2023/09/23 09:54:38;;;;;;;7.82;2.90;;;;;;;14.14;100.00;101264.03;5079664;28;20052;-66
2023/09/23 09:57:29;;;;;;;9.55;3.08;;;;;;;14.18;100.00;101260.44;5041319;28;20114;-64
2023/09/23 10:00:35;;;;;;;6.82;3.17;;;;;;;14.20;100.00;101268.41;5069974;28;20500;-66
2023/09/23 10:03:27;;;;;;;9.65;3.90;;;;;;;14.23;100.00;101276.06;5078430;28;20052;-66
2023/09/23 10:06:21;;;;;;;8.68;3.13;;;;;;;14.24;100.00;101274.97;5067025;28;20577;-66
2023/09/23 10:09:17;;;;;;;11.85;3.40;;;;;;;14.24;100.00;101270.31;5059706;28;20118;-65
2023/09/23 10:12:07;;;;;;;14.27;3.45;;;;;;;14.27;100.00;101266.19;5075778;28;20044;-64
2023/09/23 10:14:56;;;;;;;9.45;2.95;;;;;;;14.27;100.00;101275.22;5059459;28;20140;-65
2023/09/23 10:17:44;;;;;;;6.60;2.60;;;;;;;14.30;100.00;101279.31;5058597;28;20056;-65
2023/09/23 10:20:33;;;;;;;9.88;3.28;;;;;;;14.28;100.00;101276.84;5059525;28;20041;-65
2023/09/23 10:23:22;;;;;;;11.57;3.55;;;;;;;14.27;100.00;101283.44;5045023;28;20083;-65
2023/09/23 10:26:14;;;;;;;13.60;3.97;;;;;;;14.29;100.00;101288.66;5050047;28;20078;-65
2023/09/23 10:29:05;;;;;;;11.15;3.63;;;;;;;14.31;100.00;101297.41;5078808;28;20044;-66
2023/09/23 10:31:53;;;;;;;13.50;3.78;;;;;;;14.34;100.00;101296.84;5095387;28;20044;-66
2023/09/23 10:34:53;;;;;;;9.30;3.22;;;;;;;14.40;100.00;101300.38;5093812;28;20048;-66
2023/09/23 10:37:41;;;;;;;11.68;3.70;;;;;;;14.44;100.00;101290.50;5052471;28;20052;-66
2023/09/23 10:40:29;;;;;;;13.38;4.38;;;;;;;14.54;100.00;101303.34;5072720;28;20407;-65
2023/09/23 10:43:18;;;;;;;9.32;2.83;;;;;;;14.60;100.00;101304.94;5071449;28;20549;-65
2023/09/23 10:46:06;;;;;;;10.85;3.50;;;;;;;14.58;100.00;101309.91;5045482;28;20451;-65
2023/09/23 10:48:54;;;;;;;10.35;3.58;;;;;;;14.59;100.00;101311.53;5072581;28;20052;-65
2023/09/23 10:51:42;;;;;;;11.88;4.35;;;;;;;14.61;100.00;101314.84;5045648;28;20056;-65
2023/09/23 10:54:30;;;;;;;9.65;3.47;;;;;;;14.62;100.00;101317.31;5044260;28;20475;-66
2023/09/23 10:57:18;;;;;;;10.30;3.53;;;;;;;14.63;100.00;101327.16;5064277;28;20498;-64
2023/09/23 11:00:14;;;;;;;8.57;3.50;;;;;;;14.62;100.00;101325.53;5093373;28;20523;-64
2023/09/23 11:03:09;;;;;;;8.88;3.20;;;;;;;14.63;100.00;101329.09;5067023;28;20059;-65
2023/09/23 11:05:57;;;;;;;9.93;3.30;;;;;;;14.69;100.00;101347.13;5039068;28;20049;-64
2023/09/23 11:08:45;;;;;;;11.43;3.60;;;;;;;14.75;100.00;101340.53;5053359;28;20060;-64
2023/09/23 11:11:36;;;;;;;10.48;3.40;;;;;;;14.77;100.00;101343.81;5025421;28;20159;-66
2023/09/23 11:14:27;;;;;;;8.82;3.58;;;;;;;14.79;100.00;101344.34;5053239;28;20080;-66
2023/09/23 11:17:29;;;;;;;7.82;3.35;;;;;;;14.84;100.00;101349.81;5066353;28;20045;-66
2023/09/23 11:20:27;;;;;;;8.60;3.80;;;;;;;14.93;100.00;101340.97;5042513;28;20048;-65
2023/09/23 11:23:16;;;;;;;14.35;3.55;;;;;;;14.97;100.00;101347.53;5044505;28;20071;-65
2023/09/23 11:26:04;;;;;;;9.07;3.05;;;;;;;15.02;100.00;101355.72;5041753;28;20436;-65
2023/09/23 11:28:53;;;;;;;7.60;2.97;;;;;;;15.10;100.00;101371.56;5053030;28;20051;-66
2023/09/23 11:31:41;;;;;;;7.50;3.28;;;;;;;15.18;100.00;101365.50;5072866;28;20052;-65
2023/09/23 11:34:30;;;;;;;13.30;3.40;;;;;;;15.25;100.00;101362.41;5077936;28;20044;-66
2023/09/23 11:37:22;;;;;;;9.93;3.28;;;;;;;15.29;100.00;101361.53;5086247;28;20041;-66
2023/09/23 11:40:18;;;;;;;10.95;3.17;;;;;;;15.31;100.00;101367.56;5058242;28;20049;-65
2023/09/23 11:43:06;;;;;;;9.98;3.05;;;;;;;15.31;100.00;101373.06;5071899;28;20056;-65
2023/09/23 11:45:54;;;;;;;10.50;3.65;;;;;;;15.38;100.00;101372.75;5058719;28;20137;-65
2023/09/23 11:48:46;;;;;;;12.10;3.28;;;;;;;15.48;100.00;101374.59;5073109;28;20152;-64
2023/09/23 11:51:35;;;;;;;7.90;3.25;;;;;;;15.50;100.00;101373.19;5070415;28;20157;-65
2023/09/23 11:54:23;;;;;;;12.77;4.20;;;;;;;15.50;100.00;101377.88;5057177;28;20055;-66
2023/09/23 11:57:12;;;;;;;6.90;2.75;;;;;;;15.44;100.00;101384.50;5069343;28;20045;-66
2023/09/23 12:00:00;;;;;;;9.52;3.58;;;;;;;15.38;100.00;101396.66;5057384;28;20101;-65
2023/09/23 12:02:53;;;;;;;8.43;2.97;;;;;;;15.32;100.00;101398.59;5073880;28;20044;-66
2023/09/23 12:05:41;;;;;;;9.32;3.03;;;;;;;15.27;100.00;101402.22;5042390;28;20053;-66
2023/09/23 12:08:29;;;;;;;10.60;3.28;;;;;;;15.24;100.00;101397.28;5057637;28;20045;-65
2023/09/23 12:11:21;;;;;;;11.80;3.35;;;;;;;15.22;100.00;101404.97;5056845;28;20524;-64
2023/09/23 12:14:09;;;;;;;7.05;2.90;;;;;;;15.23;100.00;101406.63;5072742;28;20044;-65
2023/09/23 12:16:58;;;;;;;11.23;2.95;;;;;;;15.24;100.00;101419.25;5059069;28;20044;-65
2023/09/23 12:19:47;;;;;;;7.78;2.97;;;;;;;15.24;100.00;101424.72;5073264;28;20052;-65
2023/09/23 12:22:35;;;;;;;10.68;4.22;;;;;;;15.21;100.00;101425.31;5061526;28;20048;-65
2023/09/23 12:25:23;;;;;;;12.02;4.88;;;;;;;15.19;100.00;101427.50;5072866;28;20179;-66
2023/09/23 12:28:11;;;;;;;8.52;3.67;;;;;;;15.17;100.00;101435.22;5061822;28;20056;-64
2023/09/23 12:30:59;;;;;;;9.65;3.53;;;;;;;15.24;100.00;101424.72;5063757;28;20127;-64
2023/09/23 12:33:47;;;;;;;9.20;4.15;;;;;;;15.32;100.00;101426.91;5078021;28;20044;-66
2023/09/23 12:36:35;;;;;;;12.20;4.53;;;;;;;15.42;100.00;101436.16;5076471;28;20052;-65
2023/09/23 12:39:23;;;;;;;7.35;3.25;;;;;;;15.51;100.00;101437.19;5061841;28;20055;-66
2023/09/23 12:42:13;;;;;;;10.30;3.58;;;;;;;15.59;100.00;101444.81;5060008;28;20094;-65
2023/09/23 12:45:01;;;;;;;8.80;3.30;;;;;;;15.61;100.00;101450.84;5060521;28;20389;-65
2023/09/23 12:47:53;;;;;;;8.23;3.00;;;;;;;15.61;100.00;101445.38;5060261;28;20062;-64
2023/09/23 12:50:45;;;;;;;7.43;2.65;;;;;;;15.59;100.00;101453.06;5074334;28;20045;-65
2023/09/23 12:53:33;;;;;;;8.75;2.88;;;;;;;15.62;100.00;101457.97;5060560;28;20056;-65
2023/09/23 12:56:21;;;;;;;5.75;2.60;;;;;;;15.68;100.00;101462.34;5051461;28;20181;-65